Time;durP1;ratioP1;P1;durP2;ratioP2;P2;SDS_P1;SDS_P2;PMS_P1;PMS_P2;Temp;Humidity;BMP_temperature;BMP_pressure;BME280_temperature;BME280_humidity;BME280_pressure;Samples;Min_cycle;Max_cycle;Signal;HPM_P1;HPM_P2
2022/12/09 00:01:22;;;;;;;0.50;0.50;;;4.70;99.90;;;;;;5055009;28;20079;-85
2022/12/09 00:03:48;;;;;;;0.30;0.30;;;4.70;99.90;;;;;;5064607;28;20525;-85
2022/12/09 00:06:26;;;;;;;0.77;0.77;;;4.80;99.90;;;;;;5067381;28;20044;-87
2022/12/09 00:08:53;;;;;;;0.75;0.75;;;4.90;99.90;;;;;;5059492;28;20040;-86
2022/12/09 00:11:20;;;;;;;1.13;1.08;;;4.80;99.90;;;;;;5057300;28;20025;-85
2022/12/09 00:13:50;;;;;;;0.22;0.22;;;4.70;99.90;;;;;;5062390;28;20037;-85
2022/12/09 00:16:15;;;;;;;0.15;0.15;;;4.70;99.90;;;;;;5067101;28;20024;-85
2022/12/09 00:18:42;;;;;;;0.40;0.38;;;4.70;99.90;;;;;;5065049;28;20042;-86
2022/12/09 00:21:25;;;;;;;0.25;0.25;;;4.80;99.90;;;;;;5062167;28;20052;-86
2022/12/09 00:23:52;;;;;;;0.47;0.30;;;4.80;99.90;;;;;;5059716;28;20032;-87
2022/12/09 00:26:20;;;;;;;0.20;0.20;;;4.80;99.90;;;;;;5062892;28;20685;-87
2022/12/09 00:28:47;;;;;;;0.75;0.75;;;4.70;99.90;;;;;;5047477;28;20785;-86
2022/12/09 00:31:14;;;;;;;0.30;0.30;;;4.70;99.90;;;;;;5052586;28;20911;-86
2022/12/09 00:33:40;;;;;;;0.25;0.25;;;4.60;99.90;;;;;;5053872;28;20036;-87
2022/12/09 00:36:13;;;;;;;0.57;0.57;;;4.60;99.90;;;;;;5058848;28;20028;-86
2022/12/09 00:38:40;;;;;;;0.28;0.28;;;4.60;99.90;;;;;;5066693;28;20067;-87
2022/12/09 00:41:06;;;;;;;0.20;0.20;;;4.60;99.90;;;;;;5061605;28;20487;-84
2022/12/09 00:43:32;;;;;;;0.63;0.63;;;4.60;99.90;;;;;;5056105;28;20036;-85
2022/12/09 00:45:58;;;;;;;0.60;0.60;;;4.60;99.90;;;;;;5062154;28;20879;-85
2022/12/09 00:48:24;;;;;;;0.28;0.28;;;4.60;99.90;;;;;;5049585;28;20087;-87
2022/12/09 00:50:50;;;;;;;0.10;0.10;;;4.60;99.90;;;;;;5048842;28;20028;-84
2022/12/09 00:53:15;;;;;;;0.32;0.32;;;4.70;99.90;;;;;;5055228;28;20032;-85
2022/12/09 00:55:42;;;;;;;1.10;0.95;;;4.70;99.90;;;;;;5066131;28;20081;-85
2022/12/09 00:58:08;;;;;;;0.50;0.50;;;4.60;99.90;;;;;;5053886;28;20838;-83
2022/12/09 01:00:33;;;;;;;0.10;0.10;;;4.70;99.90;;;;;;5059259;28;20155;-83
2022/12/09 01:02:59;;;;;;;0.10;0.10;;;4.60;99.90;;;;;;5056084;28;20039;-83
2022/12/09 01:05:24;;;;;;;0.65;0.55;;;4.70;99.90;;;;;;5064183;28;20105;-83
2022/12/09 01:07:50;;;;;;;0.22;0.22;;;4.70;99.90;;;;;;5056057;28;20035;-84
2022/12/09 01:10:16;;;;;;;0.30;0.30;;;4.80;99.90;;;;;;5059079;28;20094;-84
2022/12/09 01:12:42;;;;;;;0.63;0.63;;;4.80;99.90;;;;;;5058744;28;20021;-84
2022/12/09 01:15:09;;;;;;;2.05;1.10;;;4.70;99.90;;;;;;5062109;28;20025;-84
2022/12/09 01:17:38;;;;;;;0.55;0.55;;;4.80;99.90;;;;;;5060832;28;20151;-84
2022/12/09 01:20:07;;;;;;;0.20;0.20;;;4.80;99.90;;;;;;5055171;28;20587;-84
2022/12/09 01:22:33;;;;;;;0.40;0.40;;;4.80;99.90;;;;;;5054748;28;20032;-84
2022/12/09 01:24:58;;;;;;;0.32;0.32;;;4.80;99.90;;;;;;5062742;28;20037;-84
2022/12/09 01:27:24;;;;;;;0.50;0.50;;;4.90;99.90;;;;;;5057463;28;20032;-85
2022/12/09 01:29:50;;;;;;;0.10;0.10;;;4.90;99.90;;;;;;5066585;28;20150;-84
2022/12/09 01:32:16;;;;;;;0.17;0.17;;;4.90;99.90;;;;;;5062186;28;20032;-84
2022/12/09 01:34:41;;;;;;;0.20;0.20;;;4.90;99.90;;;;;;5048787;28;20075;-84
2022/12/09 01:37:07;;;;;;;0.10;0.10;;;4.90;99.90;;;;;;5051468;28;20491;-84
2022/12/09 01:39:33;;;;;;;3.30;1.05;;;5.00;99.90;;;;;;5063958;28;20107;-84
2022/12/09 01:42:03;;;;;;;0.45;0.45;;;4.90;99.90;;;;;;5060026;28;20133;-84
2022/12/09 01:44:31;;;;;;;0.22;0.22;;;5.00;99.90;;;;;;5055499;28;20035;-84
2022/12/09 01:46:59;;;;;;;0.65;0.65;;;5.00;99.90;;;;;;5060406;28;20033;-85
2022/12/09 01:49:37;;;;;;;0.55;0.55;;;5.00;99.90;;;;;;5052174;28;20035;-86
2022/12/09 01:52:15;;;;;;;0.47;0.47;;;5.00;99.90;;;;;;5057940;28;20847;-86
2022/12/09 01:54:42;;;;;;;0.30;0.30;;;5.00;99.90;;;;;;5060313;28;20033;-87
2022/12/09 01:57:08;;;;;;;0.10;0.10;;;5.00;99.90;;;;;;5066537;28;20036;-87
2022/12/09 01:59:35;;;;;;;0.40;0.40;;;5.00;99.90;;;;;;5065884;28;20563;-87
2022/12/09 02:02:03;;;;;;;0.65;0.65;;;5.00;99.90;;;;;;5051418;28;20278;-84
2022/12/09 02:04:33;;;;;;;0.47;0.47;;;5.00;99.90;;;;;;5062731;28;20475;-86
2022/12/09 02:07:02;;;;;;;0.45;0.45;;;5.00;99.90;;;;;;5060398;28;20039;-86
2022/12/09 02:09:28;;;;;;;0.20;0.20;;;5.10;99.90;;;;;;5063800;28;20039;-85
2022/12/09 02:11:54;;;;;;;0.20;0.20;;;5.10;99.90;;;;;;5063460;28;20029;-86
2022/12/09 02:14:44;;;;;;;0.50;0.50;;;5.10;99.90;;;;;;5064975;28;20028;-85
2022/12/09 02:17:32;;;;;;;0.40;0.40;;;5.10;99.90;;;;;;5069570;28;20648;-86
2022/12/09 02:20:20;;;;;;;0.28;0.28;;;5.10;99.90;;;;;;5061337;28;20021;-85
2022/12/09 02:22:52;;;;;;;2.00;1.80;;;5.10;99.90;;;;;;5056283;28;20035;-86
2022/12/09 02:25:53;;;;;;;0.88;0.88;;;5.20;99.90;;;;;;5060118;28;20110;-85
2022/12/09 02:28:39;;;;;;;1.45;1.25;;;5.10;99.90;;;;;;5060292;28;20047;-85
2022/12/09 02:31:22;;;;;;;0.20;0.20;;;5.10;99.90;;;;;;5065163;28;20025;-85
2022/12/09 02:34:27;;;;;;;0.85;0.85;;;5.20;99.90;;;;;;5063595;28;20033;-84
2022/12/09 02:37:15;;;;;;;0.40;0.40;;;5.20;99.90;;;;;;5060003;28;20032;-85
2022/12/09 02:39:53;;;;;;;0.35;0.35;;;5.10;99.90;;;;;;5060454;28;20063;-85
2022/12/09 02:42:21;;;;;;;0.20;0.20;;;5.10;99.90;;;;;;5052796;28;20029;-85
2022/12/09 02:44:49;;;;;;;0.80;0.73;;;5.00;99.90;;;;;;5055477;28;20031;-85
2022/12/09 02:47:19;;;;;;;0.73;0.73;;;5.00;99.90;;;;;;5061336;28;20060;-85
2022/12/09 02:49:50;;;;;;;0.20;0.20;;;5.00;99.90;;;;;;5056536;28;20091;-85
2022/12/09 02:52:18;;;;;;;0.70;0.65;;;5.10;99.90;;;;;;5059060;28;20108;-86
2022/12/09 02:54:43;;;;;;;0.10;0.10;;;5.10;99.90;;;;;;5057934;28;20071;-86
2022/12/09 02:57:16;;;;;;;0.35;0.35;;;5.10;99.90;;;;;;5050531;28;20033;-86
2022/12/09 02:59:42;;;;;;;1.35;0.77;;;5.10;99.90;;;;;;5060855;28;20036;-85
2022/12/09 03:02:20;;;;;;;1.23;0.75;;;5.10;99.90;;;;;;5068390;28;20024;-86
2022/12/09 03:05:07;;;;;;;0.65;0.50;;;5.10;99.90;;;;;;5065852;28;20056;-85
2022/12/09 03:07:40;;;;;;;0.20;0.20;;;5.20;99.90;;;;;;5068710;28;20037;-86
2022/12/09 03:10:15;;;;;;;0.73;0.73;;;5.20;99.90;;;;;;5066973;28;20526;-83
2022/12/09 03:12:48;;;;;;;0.20;0.20;;;5.20;99.90;;;;;;5061186;28;20035;-84
2022/12/09 03:15:21;;;;;;;0.68;0.68;;;5.20;99.90;;;;;;5059467;28;20044;-86
2022/12/09 03:17:47;;;;;;;0.10;0.10;;;5.20;99.90;;;;;;5050864;28;20464;-86
2022/12/09 03:20:18;;;;;;;0.57;0.57;;;5.20;99.90;;;;;;5065383;28;20064;-83
2022/12/09 03:22:46;;;;;;;0.10;0.10;;;5.20;99.90;;;;;;5065173;28;20029;-82
2022/12/09 03:25:28;;;;;;;0.30;0.30;;;5.20;99.90;;;;;;5053153;28;20037;-83
2022/12/09 03:28:02;;;;;;;0.70;0.70;;;5.20;99.90;;;;;;5065676;28;20036;-81
2022/12/09 03:30:32;;;;;;;0.17;0.17;;;5.20;99.90;;;;;;5060975;28;20028;-86
2022/12/09 03:32:58;;;;;;;0.30;0.30;;;5.30;99.90;;;;;;5049829;28;20040;-87
2022/12/09 03:35:34;;;;;;;0.10;0.10;;;5.20;99.90;;;;;;5067852;28;20029;-86
2022/12/09 03:38:04;;;;;;;0.10;0.10;;;5.20;99.90;;;;;;5051318;28;20103;-86
2022/12/09 03:40:31;;;;;;;0.30;0.30;;;5.20;99.90;;;;;;5058834;28;20056;-86
2022/12/09 03:43:18;;;;;;;0.40;0.40;;;5.30;99.90;;;;;;5052656;28;20030;-86
2022/12/09 03:45:44;;;;;;;0.20;0.20;;;5.30;99.90;;;;;;5067885;28;20031;-85
2022/12/09 03:48:11;;;;;;;0.43;0.35;;;5.30;99.90;;;;;;5067885;28;20033;-83
2022/12/09 03:51:04;;;;;;;0.32;0.32;;;5.30;99.90;;;;;;5063203;28;20206;-86
2022/12/09 03:54:12;;;;;;;0.45;0.45;;;5.30;99.90;;;;;;5057755;28;20568;-88
2022/12/09 03:56:44;;;;;;;0.10;0.10;;;5.30;99.90;;;;;;5045915;28;20120;-89
2022/12/09 03:59:12;;;;;;;0.10;0.10;;;5.30;99.90;;;;;;5057720;28;20082;-84
2022/12/09 04:01:40;;;;;;;2.22;1.38;;;5.30;99.90;;;;;;5060150;28;20139;-85
2022/12/09 04:04:07;;;;;;;1.55;1.10;;;5.30;99.90;;;;;;5055149;28;20033;-85
2022/12/09 04:06:33;;;;;;;0.17;0.17;;;5.30;99.90;;;;;;5051987;28;20053;-85
2022/12/09 04:08:58;;;;;;;0.30;0.30;;;5.40;99.90;;;;;;5059403;28;20602;-85
2022/12/09 04:11:24;;;;;;;0.10;0.10;;;5.40;99.90;;;;;;5055395;28;20119;-85
2022/12/09 04:13:50;;;;;;;0.38;0.38;;;5.40;99.90;;;;;;5058537;28;20384;-84
2022/12/09 04:16:16;;;;;;;0.28;0.28;;;5.40;99.90;;;;;;5060267;28;20060;-84
2022/12/09 04:18:41;;;;;;;0.20;0.20;;;5.50;99.90;;;;;;5068029;28;20082;-85
2022/12/09 04:21:09;;;;;;;0.88;0.88;;;5.50;99.90;;;;;;5052289;28;20040;-83
2022/12/09 04:23:35;;;;;;;0.20;0.20;;;5.60;99.90;;;;;;5061461;28;20067;-84
2022/12/09 04:26:01;;;;;;;0.28;0.28;;;5.60;99.90;;;;;;5064347;28;20642;-84
2022/12/09 04:28:26;;;;;;;0.10;0.10;;;5.60;99.90;;;;;;5047373;28;20040;-85
2022/12/09 04:30:52;;;;;;;0.63;0.63;;;5.60;99.90;;;;;;5061148;28;20271;-85
2022/12/09 04:33:18;;;;;;;0.65;0.65;;;5.50;99.90;;;;;;5064705;28;20031;-84
2022/12/09 04:35:43;;;;;;;0.20;0.20;;;5.50;99.90;;;;;;5055155;28;20481;-83
2022/12/09 04:38:09;;;;;;;1.10;1.08;;;5.50;99.90;;;;;;5055864;28;20063;-84
2022/12/09 04:40:35;;;;;;;0.30;0.30;;;5.50;99.90;;;;;;5056482;28;20503;-84
2022/12/09 04:43:00;;;;;;;0.25;0.25;;;5.50;99.90;;;;;;5053186;28;20040;-83
2022/12/09 04:45:27;;;;;;;0.30;0.30;;;5.40;99.90;;;;;;5062724;28;20413;-83
2022/12/09 04:47:52;;;;;;;0.77;0.77;;;5.40;99.90;;;;;;5059628;28;20215;-85
2022/12/09 04:50:18;;;;;;;0.47;0.47;;;5.40;99.90;;;;;;5062928;28;20116;-85
2022/12/09 04:52:44;;;;;;;0.10;0.10;;;5.40;99.90;;;;;;5064735;28;20989;-86
2022/12/09 04:55:12;;;;;;;0.80;0.80;;;5.30;99.90;;;;;;5059217;28;20036;-87
2022/12/09 04:57:38;;;;;;;0.63;0.63;;;5.30;99.90;;;;;;5057642;28;20116;-87
2022/12/09 05:00:05;;;;;;;0.63;0.63;;;5.30;99.90;;;;;;5054529;28;20112;-85
2022/12/09 05:02:31;;;;;;;;;;;5.30;99.90;;;;;;5055000;28;20046;-85
2022/12/09 05:04:56;;;;;;;0.20;0.20;;;5.30;99.90;;;;;;5060607;28;20007;-86
2022/12/09 05:07:22;;;;;;;0.30;0.30;;;5.30;99.90;;;;;;5061254;28;20059;-86
2022/12/09 05:09:48;;;;;;;0.10;0.10;;;5.20;99.90;;;;;;5062828;28;20047;-86
2022/12/09 05:12:13;;;;;;;1.25;1.05;;;5.30;99.90;;;;;;5066796;28;20040;-86
2022/12/09 05:14:39;;;;;;;0.75;0.75;;;5.30;99.90;;;;;;5058985;28;20031;-86
2022/12/09 05:17:06;;;;;;;1.30;1.20;;;5.20;99.90;;;;;;5054788;28;20025;-85
2022/12/09 05:19:32;;;;;;;0.30;0.30;;;5.30;99.90;;;;;;5059315;28;20097;-89
2022/12/09 05:21:57;;;;;;;0.28;0.28;;;5.20;99.90;;;;;;5049419;28;20044;-88
2022/12/09 05:24:23;;;;;;;0.32;0.32;;;5.20;99.90;;;;;;5061135;28;20067;-89
2022/12/09 05:26:49;;;;;;;0.38;0.38;;;5.20;99.90;;;;;;5064205;28;20479;-86
2022/12/09 05:29:14;;;;;;;0.90;0.50;;;5.20;99.90;;;;;;5066425;28;20020;-87
2022/12/09 05:31:40;;;;;;;0.10;0.10;;;5.20;99.90;;;;;;5052241;28;20040;-87
2022/12/09 05:34:06;;;;;;;0.77;0.55;;;5.30;99.90;;;;;;5065819;28;20031;-85
2022/12/09 05:36:31;;;;;;;0.20;0.20;;;5.30;99.90;;;;;;5056192;28;20036;-86
2022/12/09 05:38:57;;;;;;;0.20;0.20;;;5.30;99.90;;;;;;5064850;28;20163;-86
2022/12/09 05:41:24;;;;;;;0.28;0.28;;;5.40;99.90;;;;;;5055333;28;20033;-88
2022/12/09 05:43:50;;;;;;;0.10;0.10;;;5.40;99.90;;;;;;5067228;28;20029;-89
2022/12/09 05:46:16;;;;;;;0.20;0.20;;;5.50;99.90;;;;;;5062729;28;20041;-86
2022/12/09 05:48:41;;;;;;;0.20;0.20;;;5.50;99.90;;;;;;5065068;28;20084;-81
2022/12/09 05:51:28;;;;;;;0.30;0.30;;;5.50;99.90;;;;;;5060825;28;20998;-86
2022/12/09 05:53:56;;;;;;;0.28;0.28;;;5.50;99.90;;;;;;5060661;28;20055;-89
2022/12/09 05:56:23;;;;;;;0.52;0.52;;;5.40;99.90;;;;;;5052037;28;20049;-91
2022/12/09 05:58:49;;;;;;;;;;;5.40;99.90;;;;;;5063591;28;20032;-84
2022/12/09 06:01:17;;;;;;;0.15;0.15;;;5.40;99.90;;;;;;5065827;28;20399;-86
2022/12/09 06:03:46;;;;;;;0.20;0.20;;;5.40;99.90;;;;;;5056266;28;20111;-86
2022/12/09 06:06:14;;;;;;;0.20;0.20;;;5.40;99.90;;;;;;5065090;28;20051;-87
2022/12/09 06:08:41;;;;;;;0.40;0.40;;;5.40;99.90;;;;;;5062507;28;20032;-87
2022/12/09 06:11:18;;;;;;;0.63;0.63;;;5.30;99.90;;;;;;5058760;28;20039;-88
2022/12/09 06:13:45;;;;;;;0.52;0.38;;;5.30;99.90;;;;;;5063679;28;20128;-88
2022/12/09 06:16:12;;;;;;;0.75;0.47;;;5.30;99.90;;;;;;5065521;28;20029;-89
2022/12/09 06:18:38;;;;;;;0.22;0.22;;;5.30;99.90;;;;;;5063781;28;20037;-91
2022/12/09 06:21:06;;;;;;;0.28;0.28;;;5.20;99.90;;;;;;5054143;28;20032;-88
2022/12/09 06:23:37;;;;;;;0.95;0.95;;;5.20;99.90;;;;;;5064429;28;20025;-90
2022/12/09 06:26:04;;;;;;;0.10;0.10;;;5.20;99.90;;;;;;5064444;28;20831;-86
2022/12/09 06:28:30;;;;;;;0.30;0.30;;;5.20;99.90;;;;;;5057295;28;20091;-88
2022/12/09 06:30:59;;;;;;;0.50;0.50;;;5.20;99.90;;;;;;5068329;28;20115;-88
2022/12/09 06:33:25;;;;;;;0.10;0.10;;;5.20;99.90;;;;;;5060188;28;20029;-90
2022/12/09 06:35:51;;;;;;;0.10;0.10;;;5.10;99.90;;;;;;5056708;28;20037;-88
2022/12/09 06:38:17;;;;;;;0.22;0.22;;;5.10;99.90;;;;;;5057153;28;20044;-85
2022/12/09 06:40:43;;;;;;;0.57;0.57;;;5.10;99.90;;;;;;5068839;28;20029;-89
2022/12/09 06:43:10;;;;;;;0.50;0.50;;;5.10;99.90;;;;;;5065465;28;20029;-86
2022/12/09 06:45:36;;;;;;;2.28;0.57;;;5.10;99.90;;;;;;5063768;28;20063;-87
2022/12/09 06:48:03;;;;;;;0.22;0.22;;;5.10;99.90;;;;;;5064231;28;20492;-87
2022/12/09 06:50:29;;;;;;;0.20;0.20;;;5.10;99.90;;;;;;5067039;28;20029;-89
2022/12/09 06:52:55;;;;;;;0.60;0.60;;;5.10;99.90;;;;;;5068674;28;20024;-89
2022/12/09 06:55:20;;;;;;;0.20;0.20;;;5.10;99.90;;;;;;5060995;28;20107;-88
2022/12/09 06:57:46;;;;;;;1.25;0.82;;;5.10;99.90;;;;;;5060096;28;20057;-88
2022/12/09 07:00:13;;;;;;;0.30;0.30;;;5.10;99.90;;;;;;5067316;28;20041;-88
2022/12/09 07:02:39;;;;;;;0.10;0.10;;;5.00;99.90;;;;;;5062085;28;20144;-88
2022/12/09 07:05:05;;;;;;;0.43;0.43;;;5.00;99.90;;;;;;5050099;28;20150;-87
2022/12/09 07:07:31;;;;;;;0.27;0.27;;;5.10;99.90;;;;;;5064099;28;20043;-86
2022/12/09 07:09:57;;;;;;;0.28;0.28;;;5.10;99.90;;;;;;5061938;28;20112;-88
2022/12/09 07:12:22;;;;;;;0.17;0.17;;;5.00;99.90;;;;;;5068305;28;20127;-87
2022/12/09 07:14:48;;;;;;;0.20;0.20;;;5.00;99.90;;;;;;5050229;28;20024;-86
2022/12/09 07:17:19;;;;;;;0.15;0.15;;;5.00;99.90;;;;;;5062139;28;20039;-88
2022/12/09 07:19:45;;;;;;;0.35;0.30;;;5.00;99.90;;;;;;5054450;28;20044;-87
2022/12/09 07:22:11;;;;;;;0.63;0.63;;;5.00;99.90;;;;;;5065124;28;20063;-87
2022/12/09 07:24:37;;;;;;;0.10;0.10;;;5.00;99.90;;;;;;5077308;28;20475;-89
2022/12/09 07:27:05;;;;;;;0.47;0.47;;;5.00;99.90;;;;;;5060687;28;20120;-83
2022/12/09 07:29:32;;;;;;;1.05;0.95;;;5.00;99.90;;;;;;5059631;28;20032;-83
2022/12/09 07:31:57;;;;;;;0.40;0.40;;;5.00;99.90;;;;;;5049511;28;20025;-84
2022/12/09 07:34:23;;;;;;;0.10;0.10;;;5.10;99.90;;;;;;5061398;28;20044;-85
2022/12/09 07:36:49;;;;;;;0.10;0.10;;;5.10;99.90;;;;;;5057093;28;20726;-83
2022/12/09 07:39:16;;;;;;;0.25;0.25;;;5.10;99.90;;;;;;5067203;28;20093;-84
2022/12/09 07:41:42;;;;;;;0.10;0.10;;;5.10;99.90;;;;;;5065428;28;20606;-85
2022/12/09 07:44:09;;;;;;;0.40;0.40;;;5.20;99.90;;;;;;5049722;28;20116;-86
2022/12/09 07:46:35;;;;;;;0.32;0.32;;;5.10;99.90;;;;;;5050231;28;20036;-85
2022/12/09 07:49:02;;;;;;;0.60;0.57;;;5.10;99.90;;;;;;5061102;28;20056;-84
2022/12/09 07:51:28;;;;;;;0.10;0.10;;;5.20;99.90;;;;;;5061649;28;20024;-84
2022/12/09 07:53:55;;;;;;;2.10;0.98;;;5.20;99.90;;;;;;5058842;28;20023;-84
2022/12/09 07:56:21;;;;;;;0.15;0.15;;;5.30;99.90;;;;;;5066314;28;20079;-80
2022/12/09 07:58:49;;;;;;;0.20;0.20;;;5.30;99.90;;;;;;5068527;28;20385;-85
2022/12/09 08:01:22;;;;;;;0.40;0.40;;;5.30;99.90;;;;;;5062707;28;20047;-86
2022/12/09 08:03:48;;;;;;;0.60;0.60;;;5.30;99.90;;;;;;5079840;28;20028;-88
2022/12/09 08:06:20;;;;;;;1.10;1.00;;;5.30;99.90;;;;;;5068529;28;20066;-88
2022/12/09 08:08:46;;;;;;;0.10;0.10;;;5.30;99.90;;;;;;5063249;28;20060;-89
2022/12/09 08:11:15;;;;;;;0.52;0.52;;;5.30;99.90;;;;;;5062467;28;20131;-88
2022/12/09 08:13:41;;;;;;;0.20;0.20;;;5.30;99.90;;;;;;5061217;28;20024;-87
2022/12/09 08:16:09;;;;;;;0.63;0.45;;;5.30;99.90;;;;;;5059691;28;20871;-89
2022/12/09 08:18:35;;;;;;;0.20;0.20;;;5.30;99.90;;;;;;5060902;28;20116;-87
2022/12/09 08:21:10;;;;;;;0.20;0.20;;;5.40;99.90;;;;;;5060081;28;20145;-88
2022/12/09 08:23:36;;;;;;;1.38;0.85;;;5.50;99.90;;;;;;5060246;28;20035;-87
2022/12/09 08:26:03;;;;;;;0.20;0.20;;;5.50;99.90;;;;;;5062481;28;20032;-87
2022/12/09 08:28:29;;;;;;;1.35;0.90;;;5.50;99.90;;;;;;5061467;28;20127;-88
2022/12/09 08:30:55;;;;;;;0.35;0.30;;;5.60;99.90;;;;;;5062349;28;20037;-86
2022/12/09 08:33:21;;;;;;;0.65;0.65;;;5.70;99.90;;;;;;5058260;28;20811;-88
2022/12/09 08:35:46;;;;;;;0.35;0.35;;;5.80;99.90;;;;;;5065701;28;20020;-88
2022/12/09 08:38:12;;;;;;;0.63;0.63;;;5.90;99.90;;;;;;5059270;28;20059;-88
2022/12/09 08:40:39;;;;;;;0.10;0.10;;;5.90;99.90;;;;;;5054177;28;20029;-88
2022/12/09 08:43:07;;;;;;;0.40;0.40;;;6.00;99.90;;;;;;5053090;28;20064;-88
2022/12/09 08:45:38;;;;;;;0.15;0.15;;;6.00;99.90;;;;;;5063597;28;20037;-87
2022/12/09 08:48:05;;;;;;;0.10;0.10;;;6.20;99.90;;;;;;5068244;28;20033;-88
2022/12/09 08:50:31;;;;;;;0.30;0.30;;;6.20;99.90;;;;;;5064909;28;20068;-89
2022/12/09 08:52:57;;;;;;;0.70;0.70;;;6.20;99.90;;;;;;5066730;28;20684;-88
2022/12/09 08:55:23;;;;;;;0.55;0.55;;;6.10;99.90;;;;;;5067647;28;20109;-88
2022/12/09 08:57:48;;;;;;;0.40;0.40;;;6.00;99.90;;;;;;5067613;28;20818;-88
2022/12/09 09:00:15;;;;;;;0.90;0.75;;;6.00;99.90;;;;;;5065420;28;20029;-88
2022/12/09 09:02:41;;;;;;;0.32;0.32;;;6.10;99.90;;;;;;5067047;28;20749;-89
2022/12/09 09:05:06;;;;;;;0.30;0.30;;;6.20;99.90;;;;;;5060707;28;20160;-88
2022/12/09 09:07:32;;;;;;;0.10;0.10;;;6.40;99.90;;;;;;5070526;28;20025;-88
2022/12/09 09:09:59;;;;;;;0.70;0.70;;;6.50;99.90;;;;;;5064128;28;20032;-87
2022/12/09 09:12:25;;;;;;;;;;;6.50;99.90;;;;;;5067579;28;20132;-88
2022/12/09 09:14:53;;;;;;;0.30;0.30;;;6.40;99.90;;;;;;5058170;28;19924;-88
2022/12/09 09:17:19;;;;;;;0.40;0.40;;;6.40;99.90;;;;;;5063406;28;20470;-89
2022/12/09 09:19:45;;;;;;;0.13;0.13;;;6.50;99.90;;;;;;5056229;28;20032;-88
2022/12/09 09:22:11;;;;;;;0.30;0.30;;;6.50;99.90;;;;;;5060803;28;20033;-88
2022/12/09 09:24:37;;;;;;;0.22;0.20;;;6.50;99.90;;;;;;5061126;28;20028;-89
2022/12/09 09:27:03;;;;;;;0.20;0.20;;;6.60;99.90;;;;;;5068150;28;20020;-89
2022/12/09 09:29:28;;;;;;;0.20;0.20;;;6.70;99.90;;;;;;5068544;28;20023;-89
2022/12/09 09:31:55;;;;;;;0.52;0.52;;;6.60;99.90;;;;;;5067872;28;20035;-88
2022/12/09 09:34:22;;;;;;;0.25;0.25;;;6.60;99.90;;;;;;5058872;28;20174;-89
2022/12/09 09:36:48;;;;;;;0.30;0.30;;;6.60;99.90;;;;;;5051423;28;20021;-89
2022/12/09 09:39:13;;;;;;;0.20;0.20;;;6.60;99.90;;;;;;5055571;28;20570;-88
2022/12/09 09:41:54;;;;;;;0.63;0.55;;;6.60;99.90;;;;;;5067837;28;20107;-89
2022/12/09 09:44:42;;;;;;;0.13;0.13;;;6.60;99.90;;;;;;5059719;28;20044;-89
2022/12/09 09:47:18;;;;;;;0.40;0.40;;;6.70;99.90;;;;;;5063845;28;20056;-88
2022/12/09 09:50:01;;;;;;;0.30;0.30;;;7.00;99.90;;;;;;5060888;28;20040;-89
2022/12/09 09:52:29;;;;;;;0.20;0.20;;;7.00;99.90;;;;;;5052736;28;20040;-89
2022/12/09 09:54:55;;;;;;;0.57;0.57;;;7.10;99.90;;;;;;5059309;28;20029;-89
2022/12/09 09:57:35;;;;;;;0.50;0.37;;;7.20;99.90;;;;;;5065585;28;20098;-89
2022/12/09 10:00:09;;;;;;;0.60;0.55;;;7.30;99.90;;;;;;5055811;28;20075;-88
2022/12/09 10:02:57;;;;;;;0.22;0.22;;;7.20;99.90;;;;;;5048858;28;20064;-88
2022/12/09 10:05:37;;;;;;;0.25;0.25;;;7.30;99.90;;;;;;5059506;28;20078;-89
2022/12/09 10:08:37;;;;;;;0.10;0.10;;;7.30;99.90;;;;;;5055590;28;20048;-88
2022/12/09 10:11:16;;;;;;;0.77;0.77;;;7.30;99.90;;;;;;5056531;28;20076;-89
2022/12/09 10:14:08;;;;;;;0.10;0.10;;;7.30;99.90;;;;;;5067927;28;20017;-89
2022/12/09 10:17:04;;;;;;;0.57;0.57;;;7.30;99.90;;;;;;5047174;28;20024;-89
2022/12/09 10:19:43;;;;;;;0.70;0.70;;;7.30;99.90;;;;;;5080035;28;20029;-89
2022/12/09 10:22:18;;;;;;;1.23;1.13;;;7.20;99.90;;;;;;5052137;28;20041;-89
2022/12/09 10:24:55;;;;;;;0.35;0.35;;;7.30;99.90;;;;;;5062458;28;20035;-89
2022/12/09 10:27:34;;;;;;;0.82;0.57;;;7.40;99.90;;;;;;5062675;28;20579;-90
2022/12/09 10:30:10;;;;;;;0.88;0.88;;;7.50;99.90;;;;;;5063165;28;20028;-89
2022/12/09 10:32:37;;;;;;;0.10;0.10;;;7.60;99.90;;;;;;5054920;28;20029;-89
2022/12/09 10:35:12;;;;;;;0.20;0.20;;;7.70;99.90;;;;;;5065696;28;20140;-89
2022/12/09 10:37:38;;;;;;;1.17;0.70;;;7.60;99.90;;;;;;5068008;28;20117;-90
2022/12/09 10:40:10;;;;;;;0.55;0.55;;;7.50;99.90;;;;;;5061332;28;20059;-88
2022/12/09 10:45:55;;;;;;;0.40;0.40;;;7.80;99.90;;;;;;5064178;28;20043;-90
2022/12/09 10:48:39;;;;;;;0.75;0.43;;;7.90;99.90;;;;;;5062812;28;20632;-89
2022/12/09 10:51:11;;;;;;;0.50;0.50;;;7.90;99.90;;;;;;5055753;28;20040;-87
2022/12/09 10:53:48;;;;;;;0.55;0.55;;;7.90;99.90;;;;;;5065456;28;20547;-88
2022/12/09 10:56:27;;;;;;;1.92;0.98;;;8.10;99.90;;;;;;5065436;28;20063;-89
2022/12/09 10:59:25;;;;;;;0.60;0.60;;;8.10;99.90;;;;;;5062402;28;20033;-88
2022/12/09 11:02:18;;;;;;;1.65;1.30;;;8.20;99.90;;;;;;5063124;28;20028;-89
2022/12/09 11:04:45;;;;;;;0.82;0.82;;;8.40;99.90;;;;;;5055608;28;20048;-89
2022/12/09 11:07:25;;;;;;;0.93;0.93;;;8.50;99.90;;;;;;5051332;28;20049;-89
2022/12/09 11:10:05;;;;;;;0.95;0.95;;;8.70;99.90;;;;;;5051072;28;20044;-89
2022/12/09 11:12:37;;;;;;;2.45;1.40;;;8.60;99.90;;;;;;5054937;28;20032;-89
2022/12/09 11:15:05;;;;;;;0.52;0.40;;;8.60;99.90;;;;;;5060827;28;20028;-89
2022/12/09 11:17:38;;;;;;;0.80;0.80;;;8.50;99.90;;;;;;5069289;28;20530;-88
2022/12/09 11:20:04;;;;;;;10.45;3.70;;;8.60;99.90;;;;;;5068904;28;20028;-89
2022/12/09 11:22:39;;;;;;;0.90;0.90;;;8.60;99.90;;;;;;5054517;28;20032;-89
2022/12/09 11:25:11;;;;;;;1.60;1.08;;;8.60;99.90;;;;;;5061272;28;20050;-89
2022/12/09 11:27:49;;;;;;;1.45;1.35;;;8.60;99.90;;;;;;5063759;28;20443;-89
2022/12/09 11:30:33;;;;;;;1.00;0.80;;;8.50;99.90;;;;;;5063133;28;20028;-89
2022/12/09 11:33:12;;;;;;;0.50;0.50;;;8.50;99.90;;;;;;5075850;28;20035;-89
2022/12/09 11:35:44;;;;;;;0.63;0.63;;;8.40;99.90;;;;;;5058427;28;20040;-89
2022/12/09 11:38:32;;;;;;;1.20;1.10;;;8.40;99.90;;;;;;5068249;28;20032;-89
2022/12/09 11:41:06;;;;;;;1.00;1.00;;;8.40;99.90;;;;;;5058969;28;20028;-89
2022/12/09 11:43:47;;;;;;;2.15;1.45;;;8.50;99.90;;;;;;5059429;28;20028;-89
2022/12/09 11:46:13;;;;;;;0.88;0.88;;;8.60;99.90;;;;;;5058967;28;20064;-89
2022/12/09 11:48:42;;;;;;;3.97;2.25;;;8.50;99.90;;;;;;5051657;28;20059;-88
2022/12/09 11:51:21;;;;;;;2.13;1.67;;;8.20;99.90;;;;;;5050221;28;20025;-89
2022/12/09 11:53:47;;;;;;;6.50;2.05;;;8.20;99.90;;;;;;5058001;28;20116;-90
2022/12/09 11:56:21;;;;;;;7.90;1.40;;;8.30;99.90;;;;;;5055815;28;20025;-89
2022/12/09 11:58:53;;;;;;;0.55;0.55;;;8.40;99.90;;;;;;5059297;28;20060;-88
2022/12/09 12:01:23;;;;;;;1.05;1.05;;;8.40;99.90;;;;;;5058080;28;20043;-89
2022/12/09 12:03:53;;;;;;;1.83;1.40;;;8.40;99.90;;;;;;5056403;28;20029;-85
2022/12/09 12:06:22;;;;;;;0.75;0.75;;;8.40;99.90;;;;;;5059920;28;20049;-86
2022/12/09 12:09:02;;;;;;;1.10;1.00;;;8.40;99.90;;;;;;5049517;28;20029;-85
2022/12/09 12:11:42;;;;;;;2.70;2.50;;;8.50;99.90;;;;;;5060175;28;20032;-86
2022/12/09 12:14:19;;;;;;;7.78;1.35;;;8.50;99.90;;;;;;5056165;28;20054;-86
2022/12/09 12:16:49;;;;;;;;;;;8.60;99.90;;;;;;5061628;28;20112;-85
2022/12/09 12:19:36;;;;;;;2.65;1.38;;;8.90;99.90;;;;;;5063466;28;19909;-86
2022/12/09 12:22:02;;;;;;;1.63;1.52;;;8.90;99.90;;;;;;5051142;28;20083;-87
2022/12/09 12:25:06;;;;;;;1.85;1.75;;;8.90;99.90;;;;;;5053724;28;20025;-87
2022/12/09 12:27:35;;;;;;;9.98;4.32;;;9.00;99.90;;;;;;5026094;28;20568;-86
2022/12/09 12:30:12;;;;;;;10.48;5.80;;;9.10;99.90;;;;;;5027399;28;20046;-87
2022/12/09 12:32:56;;;;;;;;;;;9.10;99.90;;;;;;5037242;28;20055;-87
2022/12/09 12:35:37;;;;;;;1.33;1.27;;;9.20;99.90;;;;;;5063259;28;19912;-86
2022/12/09 12:38:40;;;;;;;1.30;1.05;;;9.20;99.90;;;;;;5064602;28;20063;-87
2022/12/09 12:41:32;;;;;;;3.17;1.45;;;9.30;99.90;;;;;;5039115;28;20661;-87
2022/12/09 12:47:51;;;;;;;1.45;1.40;;;9.80;99.90;;;;;;5056104;28;20203;-87
2022/12/09 12:50:51;;;;;;;2.88;1.85;;;9.80;99.90;;;;;;5044032;28;20033;-86
2022/12/09 12:53:52;;;;;;;1.48;1.38;;;9.60;99.90;;;;;;5061697;28;20040;-86
2022/12/09 12:56:25;;;;;;;0.50;0.50;;;9.40;99.90;;;;;;5057217;28;20029;-86
2022/12/09 12:58:54;;;;;;;0.35;0.35;;;9.40;99.90;;;;;;5053521;28;20571;-86
2022/12/09 13:01:48;;;;;;;0.70;0.70;;;9.60;99.90;;;;;;5051155;28;20032;-87
2022/12/09 13:05:00;;;;;;;2.00;0.60;;;9.60;99.90;;;;;;5051583;28;20043;-86
2022/12/09 13:07:38;;;;;;;0.43;0.43;;;9.50;99.90;;;;;;5019635;28;20030;-87
2022/12/09 13:10:20;;;;;;;6.32;0.65;;;9.40;99.90;;;;;;5002706;28;20551;-86
2022/12/09 13:12:55;;;;;;;0.22;0.22;;;9.20;99.90;;;;;;5033281;28;20029;-86
2022/12/09 13:15:39;;;;;;;0.30;0.30;;;9.10;99.90;;;;;;5055364;28;20029;-87
2022/12/09 13:18:28;;;;;;;0.73;0.73;;;9.30;99.90;;;;;;5052171;28;20028;-86
2022/12/09 13:20:59;;;;;;;0.57;0.57;;;9.60;99.90;;;;;;5064714;28;20033;-86
2022/12/09 13:23:46;;;;;;;1.10;1.05;;;9.80;99.90;;;;;;5055110;28;20024;-87
2022/12/09 13:26:14;;;;;;;;;;;9.70;99.90;;;;;;5051903;28;20506;-87